Temp: 20.1°C   Baro: 1014.9mb
  Wind: 4.9mph   Dir: SSW (196°)
  Rain: 0.0mm (0.0mm/hr)
  Solar: 870W/m2  Hum: 68%
 
Bath Spa Weather Station Historical Data
Daily Summary for June 30, 2020 Units:  Metric    English   Both
Daily Weekly Monthly Yearly Custom
  High: Low: Average:
Temperature: 19.5 °C 12.1 °C 15.1 °C
Dew Point: 15.4 °C 9.2 °C 12 °C
Humidity: 87% 73.2% 82%
Wind Speed: 14.5km/h 1.9km/h 7.6km/h
Wind Gust: 27.4km/h - -
Wind- - WSW
Pressure: 1009.7 hPa 1004.3 hPa -
Precipitation: 0 mm    
Historical Graphs
 
 
Tabular Data for June 30, 2020
Time Temperature Dew Point Pressure Wind Wind Speed Wind Gust Humidity Rainfall Rate (Hourly) solar
00:04 12.8 °C 9.3 °C 1009.7 hPa West 7.7 km/h 14.5 km/h 79.4% 0 mm 0 W/m2
00:09 12.8 °C 9.4 °C 1009.7 hPa West 6 km/h 9.7 km/h 80.2% 0 mm 0 W/m2
00:14 12.8 °C 9.6 °C 1009.7 hPa West 6.6 km/h 11.3 km/h 81% 0 mm 0 W/m2
00:19 12.8 °C 9.6 °C 1009.7 hPa WSW 7.7 km/h 14.5 km/h 80.8% 0 mm 0 W/m2
00:24 12.9 °C 9.5 °C 1009.7 hPa West 8.2 km/h 17.7 km/h 80% 0 mm 0 W/m2
00:29 12.9 °C 9.6 °C 1009.7 hPa West 7.6 km/h 11.3 km/h 80% 0 mm 0 W/m2
00:34 13 °C 9.6 °C 1009.4 hPa West 5.3 km/h 12.9 km/h 80% 0 mm 0 W/m2
00:39 13.1 °C 9.7 °C 1009.4 hPa West 7.4 km/h 16.1 km/h 79.8% 0 mm 0 W/m2
00:44 13.2 °C 9.6 °C 1009.4 hPa WSW 11.9 km/h 20.9 km/h 79% 0 mm 0 W/m2
00:49 13.2 °C 9.4 °C 1009 hPa WSW 8.7 km/h 17.7 km/h 78.2% 0 mm 0 W/m2
00:54 13.2 °C 9.4 °C 1009 hPa WSW 8 km/h 16.1 km/h 78% 0 mm 0 W/m2
00:59 13.2 °C 9.3 °C 1009 hPa WSW 11.4 km/h 16.1 km/h 77.6% 0 mm 0 W/m2
01:04 13.2 °C 9.3 °C 1009 hPa WSW 7.6 km/h 14.5 km/h 77% 0 mm 0 W/m2
01:09 13.2 °C 9.3 °C 1009 hPa WSW 6.1 km/h 14.5 km/h 77% 0 mm 0 W/m2
01:14 13.2 °C 9.3 °C 1009 hPa SW 10.3 km/h 17.7 km/h 77% 0 mm 0 W/m2
01:19 13.1 °C 9.3 °C 1009 hPa WSW 7.7 km/h 12.9 km/h 77.4% 0 mm 0 W/m2
01:24 13.1 °C 9.4 °C 1009 hPa WSW 7.6 km/h 12.9 km/h 78% 0 mm 0 W/m2
01:29 13.1 °C 9.4 °C 1009 hPa West 9.7 km/h 17.7 km/h 78% 0 mm 0 W/m2
01:34 13.1 °C 9.4 °C 1009 hPa WSW 10.9 km/h 19.3 km/h 78% 0 mm 0 W/m2
01:39 13.1 °C 9.4 °C 1009 hPa West 11.6 km/h 19.3 km/h 78% 0 mm 0 W/m2
01:44 13.1 °C 9.4 °C 1008.7 hPa WSW 13.2 km/h 19.3 km/h 78% 0 mm 0 W/m2
01:49 13.1 °C 9.3 °C 1008.7 hPa WSW 14.5 km/h 20.9 km/h 78% 0 mm 0 W/m2
01:54 13 °C 9.3 °C 1008.7 hPa West 10.3 km/h 19.3 km/h 78.2% 0 mm 0 W/m2
01:59 13 °C 9.4 °C 1008.7 hPa WSW 10.6 km/h 17.7 km/h 79% 0 mm 0 W/m2
02:04 12.9 °C 9.3 °C 1008.7 hPa West 10.6 km/h 19.3 km/h 79% 0 mm 0 W/m2
02:09 12.9 °C 9.3 °C 1008.4 hPa West 8.5 km/h 19.3 km/h 79% 0 mm 0 W/m2
02:14 12.9 °C 9.3 °C 1008.4 hPa WSW 13.5 km/h 19.3 km/h 79% 0 mm 0 W/m2
02:19 12.8 °C 9.2 °C 1008.4 hPa WSW 7.2 km/h 16.1 km/h 79% 0 mm 0 W/m2
02:24 12.8 °C 9.3 °C 1008.4 hPa West 4.8 km/h 16.1 km/h 79.8% 0 mm 0 W/m2
02:29 12.7 °C 9.3 °C 1008.4 hPa West 7.2 km/h 14.5 km/h 80% 0 mm 0 W/m2
02:34 12.6 °C 9.2 °C 1008.4 hPa West 6.6 km/h 14.5 km/h 80% 0 mm 0 W/m2
02:39 12.6 °C 9.3 °C 1008.4 hPa WSW 7.2 km/h 14.5 km/h 80.6% 0 mm 0 W/m2
02:44 12.6 °C 9.4 °C 1008.4 hPa WSW 8.2 km/h 19.3 km/h 81% 0 mm 0 W/m2
02:49 12.6 °C 9.4 °C 1008.4 hPa WSW 8.2 km/h 14.5 km/h 81% 0 mm 0 W/m2
02:54 12.6 °C 9.3 °C 1008.4 hPa West 9.3 km/h 16.1 km/h 81% 0 mm 0 W/m2
02:59 12.5 °C 9.3 °C 1008.4 hPa West 6.8 km/h 14.5 km/h 81% 0 mm 0 W/m2
03:04 12.4 °C 9.2 °C 1008.4 hPa WSW 9.3 km/h 17.7 km/h 81% 0 mm 0 W/m2
03:09 12.4 °C 9.2 °C 1008.4 hPa West 9.2 km/h 14.5 km/h 81% 0 mm 0 W/m2
03:14 12.4 °C 9.3 °C 1008.4 hPa West 6.4 km/h 14.5 km/h 81.6% 0 mm 0 W/m2
03:19 12.3 °C 9.3 °C 1008.4 hPa West 6.4 km/h 12.9 km/h 82% 0 mm 0 W/m2
03:24 12.3 °C 9.3 °C 1008.4 hPa West 7.1 km/h 16.1 km/h 82% 0 mm 0 W/m2
03:29 12.3 °C 9.3 °C 1008 hPa West 5.8 km/h 12.9 km/h 82% 0 mm 0 W/m2
03:34 12.2 °C 9.2 °C 1008.4 hPa West 7.1 km/h 14.5 km/h 82% 0 mm 0 W/m2
03:38 12.2 °C 9.3 °C 1008.4 hPa West 7.6 km/h 12.9 km/h 82.8% 0 mm 0 W/m2
03:44 12.2 °C 9.4 °C 1008 hPa West 9.5 km/h 16.1 km/h 83% 0 mm 0 W/m2
03:49 12.2 °C 9.4 °C 1008 hPa WSW 10.6 km/h 16.1 km/h 83% 0 mm 0 W/m2
03:54 12.2 °C 9.4 °C 1008 hPa West 7.7 km/h 14.5 km/h 83% 0 mm 0 W/m2
03:59 12.2 °C 9.4 °C 1008 hPa WSW 8.7 km/h 14.5 km/h 83% 0 mm 0 W/m2
04:04 12.3 °C 9.5 °C 1007.7 hPa WSW 6.6 km/h 16.1 km/h 83% 0 mm 0 W/m2
04:09 12.3 °C 9.5 °C 1007.7 hPa WSW 5.1 km/h 8 km/h 83% 0 mm 0 W/m2
04:14 12.3 °C 9.5 °C 1007.7 hPa WSW 7.2 km/h 11.3 km/h 83% 0 mm 0 W/m2
04:19 12.3 °C 9.5 °C 1007.7 hPa WSW 5.1 km/h 12.9 km/h 83% 0 mm 0 W/m2
04:24 12.3 °C 9.5 °C 1007.7 hPa WSW 8 km/h 17.7 km/h 83% 0 mm 0 W/m2
04:29 12.3 °C 9.4 °C 1007.7 hPa West 5.8 km/h 16.1 km/h 83% 0 mm 0 W/m2
04:34 12.2 °C 9.4 °C 1007.7 hPa WSW 7.2 km/h 14.5 km/h 83% 0 mm 0 W/m2
04:39 12.2 °C 9.5 °C 1007.7 hPa West 6.6 km/h 14.5 km/h 83.4% 0 mm 0 W/m2
04:44 12.2 °C 9.4 °C 1007.7 hPa WSW 7.2 km/h 12.9 km/h 83% 0 mm 0 W/m2
04:49 12.2 °C 9.4 °C 1007.7 hPa WSW 6.3 km/h 11.3 km/h 83.2% 0 mm 0 W/m2
04:54 12.2 °C 9.6 °C 1007.3 hPa WSW 7.2 km/h 12.9 km/h 84% 0 mm 0 W/m2
04:59 12.2 °C 9.6 °C 1007.3 hPa WSW 7.2 km/h 11.3 km/h 84% 0 mm 0 W/m2
05:04 12.2 °C 9.6 °C 1007.7 hPa WSW 7.2 km/h 9.7 km/h 84% 0 mm 0 W/m2
05:09 12.2 °C 9.6 °C 1007.3 hPa WSW 5.3 km/h 9.7 km/h 84% 0 mm 0 W/m2
05:14 12.2 °C 9.6 °C 1007.7 hPa West 7.7 km/h 11.3 km/h 84% 0 mm 0 W/m2
05:19 12.1 °C 9.5 °C 1007.7 hPa West 4.7 km/h 9.7 km/h 84% 0 mm 5 W/m2
05:24 12.1 °C 9.6 °C 1007.3 hPa West 3.9 km/h 9.7 km/h 84.6% 0 mm 5 W/m2
05:29 12.2 °C 9.7 °C 1007.3 hPa WSW 6.8 km/h 12.9 km/h 85% 0 mm 5 W/m2
05:34 12.2 °C 9.8 °C 1007.3 hPa WSW 7.9 km/h 12.9 km/h 85% 0 mm 7 W/m2
05:39 12.2 °C 9.8 °C 1007.3 hPa WSW 6.6 km/h 11.3 km/h 85% 0 mm 9 W/m2
05:44 12.2 °C 9.8 °C 1007.3 hPa WSW 5.1 km/h 11.3 km/h 85% 0 mm 9 W/m2
05:49 12.3 °C 9.8 °C 1007.3 hPa WSW 8.4 km/h 12.9 km/h 85% 0 mm 7 W/m2
05:54 12.3 °C 9.9 °C 1007.3 hPa West 7.1 km/h 14.5 km/h 85% 0 mm 9 W/m2
05:59 12.3 °C 9.9 °C 1007.3 hPa WSW 7.7 km/h 12.9 km/h 85% 0 mm 11 W/m2
06:04 12.3 °C 9.8 °C 1007.3 hPa WSW 6 km/h 11.3 km/h 84.5% 0 mm 16 W/m2
06:09 12.3 °C 9.7 °C 1007.3 hPa WSW 7.7 km/h 14.5 km/h 84% 0 mm 18 W/m2
06:14 12.4 °C 9.9 °C 1007.3 hPa WSW 5.3 km/h 9.7 km/h 84.8% 0 mm 25 W/m2
06:19 12.4 °C 9.9 °C 1007.3 hPa WSW 6.6 km/h 14.5 km/h 85% 0 mm 32 W/m2
06:24 12.4 °C 9.9 °C 1007.7 hPa SW 8.5 km/h 16.1 km/h 84.8% 0 mm 30 W/m2
06:29 12.5 °C 9.9 °C 1007.3 hPa SW 6.4 km/h 11.3 km/h 84% 0 mm 35 W/m2
06:34 12.6 °C 9.9 °C 1007.7 hPa WSW 8 km/h 12.9 km/h 84% 0 mm 46 W/m2
06:39 12.6 °C 10 °C 1007.7 hPa WSW 5.8 km/h 14.5 km/h 84% 0 mm 49 W/m2
06:44 12.7 °C 10.1 °C 1007.7 hPa WSW 8 km/h 14.5 km/h 84% 0 mm 42 W/m2
06:49 12.7 °C 10.1 °C 1007.7 hPa WSW 8.7 km/h 14.5 km/h 84% 0 mm 60 W/m2
06:54 12.7 °C 10.1 °C 1007.3 hPa WSW 5.3 km/h 16.1 km/h 84% 0 mm 60 W/m2
06:59 12.7 °C 10.1 °C 1007.3 hPa SW 7.6 km/h 14.5 km/h 84% 0 mm 54 W/m2
07:04 12.8 °C 10.2 °C 1007.3 hPa SW 9.2 km/h 16.1 km/h 84% 0 mm 76 W/m2
07:09 12.8 °C 10.2 °C 1007.3 hPa SW 7.4 km/h 16.1 km/h 84% 0 mm 81 W/m2
07:14 12.8 °C 10.3 °C 1007.3 hPa SW 10.3 km/h 16.1 km/h 84% 0 mm 93 W/m2
07:19 12.9 °C 10.3 °C 1007.3 hPa SW 12.2 km/h 16.1 km/h 84% 0 mm 107 W/m2
07:24 13.1 °C 10.4 °C 1007.3 hPa SW 8.2 km/h 16.1 km/h 84% 0 mm 91 W/m2
07:29 13.1 °C 10.3 °C 1007.3 hPa SW 7.4 km/h 14.5 km/h 83% 0 mm 72 W/m2
07:34 13.2 °C 10.5 °C 1007.3 hPa SW 5.8 km/h 12.9 km/h 83.6% 0 mm 93 W/m2
07:39 13.2 °C 10.4 °C 1007 hPa WSW 10.1 km/h 16.1 km/h 83% 0 mm 135 W/m2
07:44 13.2 °C 10.4 °C 1007 hPa WSW 9.8 km/h 17.7 km/h 83% 0 mm 207 W/m2
07:49 13.3 °C 10.4 °C 1007 hPa SW 9.5 km/h 17.7 km/h 83% 0 mm 206 W/m2
07:54 13.4 °C 10.5 °C 1007 hPa WSW 7.1 km/h 14.5 km/h 82.6% 0 mm 139 W/m2
07:59 13.5 °C 10.7 °C 1007 hPa WSW 6.4 km/h 12.9 km/h 82.8% 0 mm 113 W/m2
08:04 13.5 °C 10.5 °C 1007 hPa WSW 9.3 km/h 17.7 km/h 82% 0 mm 118 W/m2
08:09 13.4 °C 10.4 °C 1007 hPa WSW 7.1 km/h 12.9 km/h 82% 0 mm 93 W/m2
08:14 13.5 °C 10.5 °C 1007 hPa WSW 5.8 km/h 12.9 km/h 82% 0 mm 104 W/m2
08:19 13.6 °C 10.6 °C 1007 hPa SW 7.1 km/h 12.9 km/h 82% 0 mm 121 W/m2
08:24 13.6 °C 10.6 °C 1007 hPa WSW 7.6 km/h 12.9 km/h 82% 0 mm 165 W/m2
08:29 13.7 °C 10.7 °C 1007.3 hPa WSW 9.2 km/h 14.5 km/h 82% 0 mm 169 W/m2
08:34 13.7 °C 10.7 °C 1007.3 hPa WSW 9 km/h 14.5 km/h 82% 0 mm 172 W/m2
08:38 13.8 °C 10.8 °C 1007.3 hPa West 5.1 km/h 11.3 km/h 82% 0 mm 146 W/m2
08:44 13.9 °C 10.8 °C 1007.3 hPa WSW 7.1 km/h 14.5 km/h 81.6% 0 mm 146 W/m2
08:49 13.8 °C 10.6 °C 1007.3 hPa WSW 7.9 km/h 12.9 km/h 81% 0 mm 155 W/m2
08:54 13.8 °C 10.6 °C 1007.3 hPa WSW 9 km/h 14.5 km/h 81% 0 mm 163 W/m2
08:59 13.9 °C 10.7 °C 1007 hPa WSW 8.4 km/h 14.5 km/h 81% 0 mm 163 W/m2
09:04 13.9 °C 10.8 °C 1007 hPa WSW 6.6 km/h 12.9 km/h 81.2% 0 mm 176 W/m2
09:09 13.9 °C 10.8 °C 1007 hPa WSW 8.7 km/h 14.5 km/h 81.2% 0 mm 171 W/m2
09:14 13.9 °C 10.7 °C 1007 hPa WSW 10.3 km/h 14.5 km/h 81% 0 mm 163 W/m2
09:19 13.9 °C 10.7 °C 1007 hPa WSW 8.5 km/h 16.1 km/h 81% 0 mm 148 W/m2
09:24 13.9 °C 10.7 °C 1007 hPa SW 7.6 km/h 16.1 km/h 81% 0 mm 181 W/m2
09:29 13.9 °C 10.7 °C 1007 hPa SW 5.6 km/h 16.1 km/h 81% 0 mm 156 W/m2
09:34 14.1 °C 10.8 °C 1007 hPa WSW 7.2 km/h 12.9 km/h 81% 0 mm 146 W/m2
09:39 14.1 °C 10.9 °C 1007 hPa SW 7.7 km/h 12.9 km/h 81% 0 mm 176 W/m2
09:44 14.1 °C 10.8 °C 1007 hPa SW 6.6 km/h 16.1 km/h 80.4% 0 mm 171 W/m2
09:49 14.1 °C 10.7 °C 1007 hPa SW 7.2 km/h 12.9 km/h 79.8% 0 mm 220 W/m2
09:54 14.1 °C 10.3 °C 1007 hPa SW 8.2 km/h 14.5 km/h 78% 0 mm 220 W/m2
09:59 14.2 °C 10.1 °C 1007 hPa SW 10.1 km/h 16.1 km/h 76.2% 0 mm 281 W/m2
10:04 14.2 °C 9.8 °C 1006.7 hPa SW 6.6 km/h 16.1 km/h 75% 0 mm 294 W/m2
10:09 14.3 °C 9.9 °C 1006.7 hPa WSW 9.7 km/h 14.5 km/h 74.6% 0 mm 269 W/m2
10:14 14.4 °C 9.7 °C 1006.7 hPa WSW 7.7 km/h 16.1 km/h 73.2% 0 mm 258 W/m2
10:19 14.4 °C 9.7 °C 1007 hPa SW 9.8 km/h 17.7 km/h 73.6% 0 mm 188 W/m2
10:23 14.4 °C 9.9 °C 1007 hPa WSW 8.4 km/h 14.5 km/h 74.5% 0 mm 243 W/m2
10:29 14.4 °C 10 °C 1007 hPa WSW 10.5 km/h 19.3 km/h 75% 0 mm 403 W/m2
10:34 14.4 °C 10.1 °C 1007 hPa WSW 7.1 km/h 17.7 km/h 75% 0 mm 311 W/m2
10:39 14.6 °C 10.2 °C 1007 hPa West 10.1 km/h 17.7 km/h 75% 0 mm 285 W/m2
10:44 14.4 °C 10.2 °C 1006.7 hPa West 6 km/h 17.7 km/h 75.8% 0 mm 169 W/m2
10:49 14.5 °C 10.4 °C 1007 hPa SW 8 km/h 14.5 km/h 76.6% 0 mm 181 W/m2
10:54 14.6 °C 10.5 °C 1006.7 hPa WSW 8.9 km/h 16.1 km/h 76.8% 0 mm 323 W/m2
10:58 14.8 °C 10.8 °C 1006.7 hPa West 7.7 km/h 14.5 km/h 77% 0 mm 420 W/m2
11:04 15 °C 10.9 °C 1006.7 hPa West 10 km/h 19.3 km/h 76.4% 0 mm 422 W/m2
11:09 14.9 °C 10.7 °C 1006.7 hPa West 7.4 km/h 17.7 km/h 76.2% 0 mm 429 W/m2
11:14 14.8 °C 10.8 °C 1006.7 hPa WSW 11.3 km/h 19.3 km/h 77% 0 mm 216 W/m2
11:19 14.9 °C 11.1 °C 1006.7 hPa SW 9.3 km/h 16.1 km/h 78% 0 mm 151 W/m2
11:24 14.8 °C 11.2 °C 1006.7 hPa SW 6.4 km/h 14.5 km/h 79.2% 0 mm 135 W/m2
11:29 14.8 °C 11.4 °C 1006.7 hPa SW 5.1 km/h 11.3 km/h 80.2% 0 mm 204 W/m2
11:34 14.7 °C 11.6 °C 1006.7 hPa WSW 9.7 km/h 16.1 km/h 81% 0 mm 258 W/m2
11:39 14.7 °C 11.6 °C 1006.7 hPa SW 6.6 km/h 11.3 km/h 81% 0 mm 269 W/m2
11:44 14.8 °C 11.6 °C 1006.7 hPa WSW 6.4 km/h 14.5 km/h 81% 0 mm 269 W/m2
11:49 14.8 °C 11.4 °C 1006.3 hPa SW 11.3 km/h 19.3 km/h 80.2% 0 mm 302 W/m2
11:54 14.8 °C 11.3 °C 1006.3 hPa SW 7.6 km/h 19.3 km/h 79.2% 0 mm 279 W/m2
11:59 14.8 °C 11.4 °C 1006.7 hPa WSW 7.6 km/h 12.9 km/h 80% 0 mm 218 W/m2
12:04 14.8 °C 11.4 °C 1006.7 hPa WSW 6.4 km/h 14.5 km/h 80% 0 mm 227 W/m2
12:09 14.9 °C 11.6 °C 1006.7 hPa SW 4.5 km/h 12.9 km/h 80.4% 0 mm 216 W/m2
12:14 14.9 °C 11.8 °C 1006.7 hPa SW 7.4 km/h 17.7 km/h 81% 0 mm 236 W/m2
12:19 14.8 °C 11.7 °C 1006.3 hPa WSW 11.3 km/h 16.1 km/h 81% 0 mm 232 W/m2
12:24 14.8 °C 11.8 °C 1006.3 hPa WSW 5.8 km/h 16.1 km/h 81.6% 0 mm 260 W/m2
12:29 15.1 °C 12.1 °C 1006.3 hPa SSW 6.3 km/h 11.3 km/h 82% 0 mm 294 W/m2
12:34 15.2 °C 12.2 °C 1006.3 hPa WSW 7.1 km/h 14.5 km/h 82% 0 mm 392 W/m2
12:39 15.4 °C 12.3 °C 1006.3 hPa SW 6 km/h 14.5 km/h 81.5% 0 mm 397 W/m2
12:44 15.7 °C 12.4 °C 1006.3 hPa SW 5.3 km/h 12.9 km/h 81% 0 mm 387 W/m2
12:49 15.8 °C 12.5 °C 1006.3 hPa SSW 6 km/h 12.9 km/h 81% 0 mm 209 W/m2
12:54 15.7 °C 12.4 °C 1006.3 hPa SW 6.6 km/h 9.7 km/h 81% 0 mm 163 W/m2
12:59 15.8 °C 12.5 °C 1006.3 hPa SW 3.9 km/h 6.4 km/h 81% 0 mm 200 W/m2
13:04 15.9 °C 12.6 °C 1006.3 hPa South 6.6 km/h 14.5 km/h 81% 0 mm 253 W/m2
13:09 16 °C 12.7 °C 1006.3 hPa SW 6.6 km/h 11.3 km/h 81% 0 mm 257 W/m2
13:14 15.9 °C 12.6 °C 1006.3 hPa SSW 8.4 km/h 11.3 km/h 81% 0 mm 149 W/m2
13:19 15.9 °C 12.7 °C 1006 hPa SSW 7.7 km/h 11.3 km/h 81.8% 0 mm 127 W/m2
13:24 15.9 °C 12.8 °C 1006 hPa SSW 4.5 km/h 11.3 km/h 82% 0 mm 148 W/m2
13:29 16.1 °C 12.9 °C 1006 hPa SSW 3.7 km/h 8 km/h 82% 0 mm 132 W/m2
13:34 16.2 °C 13.1 °C 1006 hPa SSW 3.4 km/h 9.7 km/h 82% 0 mm 132 W/m2
13:39 16.3 °C 13.2 °C 1006 hPa SSW 6 km/h 9.7 km/h 82% 0 mm 236 W/m2
13:44 16.3 °C 13.2 °C 1005.6 hPa SW 4 km/h 9.7 km/h 82% 0 mm 246 W/m2
13:49 16.4 °C 13.3 °C 1005.6 hPa SSW 10 km/h 16.1 km/h 82% 0 mm 244 W/m2
13:54 16.6 °C 13.4 °C 1005.6 hPa SW 9.3 km/h 16.1 km/h 82% 0 mm 359 W/m2
13:59 16.6 °C 13.5 °C 1005.6 hPa SW 7.1 km/h 16.1 km/h 82% 0 mm 309 W/m2
14:04 16.8 °C 13.7 °C 1005.6 hPa SSW 8 km/h 16.1 km/h 82% 0 mm 316 W/m2
14:09 16.9 °C 13.6 °C 1005.6 hPa SW 6.4 km/h 17.7 km/h 81% 0 mm 265 W/m2
14:14 16.9 °C 13.6 °C 1005.6 hPa WSW 9.3 km/h 17.7 km/h 81% 0 mm 244 W/m2
14:19 16.9 °C 13.6 °C 1005.6 hPa WSW 9.2 km/h 19.3 km/h 81% 0 mm 264 W/m2
14:24 16.9 °C 13.6 °C 1005.6 hPa SSW 8.4 km/h 20.9 km/h 81% 0 mm 223 W/m2
14:29 17.1 °C 13.7 °C 1005.6 hPa SW 7.9 km/h 14.5 km/h 81% 0 mm 216 W/m2
14:33 17.1 °C 13.8 °C 1005.6 hPa SW 8 km/h 12.9 km/h 81% 0 mm 250 W/m2
14:39 17.2 °C 13.9 °C 1005.6 hPa SSW 7.4 km/h 17.7 km/h 81% 0 mm 276 W/m2
14:44 17.2 °C 13.9 °C 1005.6 hPa SW 13.8 km/h 19.3 km/h 81.2% 0 mm 308 W/m2
14:49 17.3 °C 14.1 °C 1005.6 hPa SW 4.7 km/h 17.7 km/h 81.2% 0 mm 294 W/m2
14:54 17.5 °C 14.2 °C 1005.3 hPa SSW 7.9 km/h 19.3 km/h 81% 0 mm 292 W/m2
14:59 17.4 °C 14.1 °C 1005.6 hPa SW 10 km/h 16.1 km/h 81% 0 mm 260 W/m2
15:04 17.6 °C 14.4 °C 1005.6 hPa WSW 7.1 km/h 16.1 km/h 81.8% 0 mm 313 W/m2
15:09 17.6 °C 14.3 °C 1005.6 hPa SW 7.9 km/h 17.7 km/h 81.2% 0 mm 519 W/m2
15:14 17.7 °C 14.5 °C 1005.6 hPa SW 10.9 km/h 20.9 km/h 81.4% 0 mm 652 W/m2
15:19 18.1 °C 14.8 °C 1005.3 hPa SW 11.6 km/h 16.1 km/h 81% 0 mm 580 W/m2
15:24 18.3 °C 14.8 °C 1005.3 hPa SW 9.7 km/h 17.7 km/h 80% 0 mm 636 W/m2
15:29 18.6 °C 15 °C 1005.3 hPa SW 8.4 km/h 14.5 km/h 79.6% 0 mm 796 W/m2
15:34 18.9 °C 15.2 °C 1005 hPa WSW 9.3 km/h 16.1 km/h 78.8% 0 mm 686 W/m2
15:39 19.2 °C 15.2 °C 1005 hPa WSW 10.3 km/h 16.1 km/h 77.8% 0 mm 517 W/m2
15:44 19.5 °C 15.3 °C 1005 hPa WSW 10 km/h 20.9 km/h 76.8% 0 mm 638 W/m2
15:49 19.4 °C 15.1 °C 1005 hPa SW 11.6 km/h 20.9 km/h 75.8% 0 mm 638 W/m2
15:54 19.2 °C 14.9 °C 1005 hPa SW 10.3 km/h 24.1 km/h 75.8% 0 mm 301 W/m2
15:59 18.9 °C 14.8 °C 1005 hPa SW 10.6 km/h 20.9 km/h 77% 0 mm 223 W/m2
16:04 18.7 °C 14.7 °C 1005 hPa WSW 10 km/h 20.9 km/h 77.8% 0 mm 188 W/m2
16:09 18.4 °C 14.7 °C 1005 hPa WSW 11.6 km/h 20.9 km/h 79% 0 mm 237 W/m2
16:13 18.4 °C 14.7 °C 1005 hPa SW 9.3 km/h 19.3 km/h 79.3% 0 mm 197 W/m2
16:19 18.6 °C 15.1 °C 1004.6 hPa WSW 8.2 km/h 16.1 km/h 79.8% 0 mm 341 W/m2
16:24 18.7 °C 15 °C 1004.6 hPa SW 10.9 km/h 19.3 km/h 79% 0 mm 306 W/m2
16:29 18.8 °C 15.1 °C 1004.6 hPa SW 9.5 km/h 16.1 km/h 79% 0 mm 272 W/m2
16:34 18.8 °C 15.2 °C 1004.6 hPa SW 7.7 km/h 16.1 km/h 79.4% 0 mm 271 W/m2
16:39 19.1 °C 15.4 °C 1004.6 hPa WSW 7.9 km/h 16.1 km/h 79.2% 0 mm 255 W/m2
16:44 19.2 °C 15.4 °C 1004.6 hPa WSW 8 km/h 16.1 km/h 79% 0 mm 318 W/m2
16:49 19.2 °C 15.4 °C 1004.6 hPa WSW 7.4 km/h 14.5 km/h 78.6% 0 mm 260 W/m2
16:54 19.2 °C 15.3 °C 1004.6 hPa West 9.3 km/h 17.7 km/h 78% 0 mm 169 W/m2
16:59 19.2 °C 15.3 °C 1004.6 hPa SW 7.9 km/h 22.5 km/h 78% 0 mm 134 W/m2
17:04 19.2 °C 15.3 °C 1004.6 hPa WSW 10.9 km/h 17.7 km/h 78% 0 mm 88 W/m2
17:09 18.9 °C 15.2 °C 1004.6 hPa WSW 7.6 km/h 17.7 km/h 78.8% 0 mm 58 W/m2
17:14 18.7 °C 15.3 °C 1004.6 hPa West 10.1 km/h 14.5 km/h 80.6% 0 mm 102 W/m2
17:19 18.2 °C 15.1 °C 1004.6 hPa WSW 12.2 km/h 27.4 km/h 81.8% 0 mm 214 W/m2
17:24 17.9 °C 14.9 °C 1004.6 hPa West 10.8 km/h 19.3 km/h 82.4% 0 mm 360 W/m2
17:29 18.1 °C 15.2 °C 1004.6 hPa WSW 8.2 km/h 17.7 km/h 83% 0 mm 360 W/m2
17:34 18.2 °C 15.2 °C 1004.6 hPa WNW 9 km/h 16.1 km/h 82.2% 0 mm 258 W/m2
17:39 18.3 °C 15.2 °C 1004.6 hPa West 7.4 km/h 17.7 km/h 81.8% 0 mm 279 W/m2
17:44 18.4 °C 15.1 °C 1004.6 hPa West 10.6 km/h 19.3 km/h 80.8% 0 mm 315 W/m2
17:49 18.4 °C 14.9 °C 1004.6 hPa West 11.3 km/h 17.7 km/h 80% 0 mm 504 W/m2
17:54 18.7 °C 15.2 °C 1004.6 hPa West 8.5 km/h 14.5 km/h 80% 0 mm 362 W/m2
17:59 18.7 °C 15.1 °C 1004.3 hPa WNW 9 km/h 16.1 km/h 79.2% 0 mm 322 W/m2
18:03 18.6 °C 14.9 °C 1004.6 hPa WNW 9.3 km/h 17.7 km/h 79% 0 mm 278 W/m2
18:09 18.6 °C 14.8 °C 1004.6 hPa WNW 9 km/h 16.1 km/h 79% 0 mm 250 W/m2
18:14 18.6 °C 14.9 °C 1004.6 hPa WNW 9 km/h 17.7 km/h 79.6% 0 mm 232 W/m2
18:19 18.3 °C 14.8 °C 1004.6 hPa WNW 11.3 km/h 17.7 km/h 80.2% 0 mm 204 W/m2
18:24 18.1 °C 14.8 °C 1004.6 hPa WNW 8 km/h 14.5 km/h 81% 0 mm 165 W/m2
18:29 18 °C 14.8 °C 1004.6 hPa WNW 8 km/h 14.5 km/h 81.8% 0 mm 176 W/m2
18:34 17.8 °C 14.7 °C 1004.6 hPa WNW 10.5 km/h 17.7 km/h 82.2% 0 mm 237 W/m2
18:39 17.7 °C 14.7 °C 1004.6 hPa WNW 6.4 km/h 17.7 km/h 82.8% 0 mm 146 W/m2
18:44 17.4 °C 14.6 °C 1004.6 hPa WNW 9.7 km/h 16.1 km/h 83.2% 0 mm 142 W/m2
18:49 17.4 °C 14.7 °C 1004.6 hPa WNW 7.2 km/h 16.1 km/h 84% 0 mm 95 W/m2
18:54 17.3 °C 14.6 °C 1004.6 hPa WNW 8.5 km/h 16.1 km/h 84% 0 mm 81 W/m2
18:59 17.2 °C 14.4 °C 1004.6 hPa WNW 11.6 km/h 17.7 km/h 84% 0 mm 148 W/m2
19:04 17.2 °C 14.7 °C 1004.6 hPa West 8.2 km/h 17.7 km/h 84.8% 0 mm 290 W/m2
19:09 17.3 °C 14.7 °C 1004.6 hPa West 7.9 km/h 11.3 km/h 84.4% 0 mm 272 W/m2
19:14 17.4 °C 14.7 °C 1004.6 hPa West 8.7 km/h 14.5 km/h 84% 0 mm 178 W/m2
19:19 17.5 °C 14.8 °C 1004.6 hPa West 6 km/h 14.5 km/h 84% 0 mm 214 W/m2
19:24 17.5 °C 14.8 °C 1004.6 hPa WNW 8.4 km/h 16.1 km/h 84% 0 mm 209 W/m2
19:29 17.4 °C 14.7 °C 1004.3 hPa WNW 12.2 km/h 17.7 km/h 84% 0 mm 234 W/m2
19:34 17.3 °C 14.5 °C 1004.3 hPa West 10 km/h 19.3 km/h 83.6% 0 mm 207 W/m2
19:39 17.3 °C 14.6 °C 1004.3 hPa WNW 14.3 km/h 14.5 km/h 84% 0 mm 109 W/m2
19:44 17.1 °C 14.4 °C 1004.3 hPa WNW 8.7 km/h 17.7 km/h 84% 0 mm 98 W/m2
19:49 17 °C 14.3 °C 1004.3 hPa WNW 9.7 km/h 19.3 km/h 84% 0 mm 139 W/m2
19:54 16.9 °C 14.2 °C 1004.3 hPa West 8.5 km/h 16.1 km/h 84% 0 mm 116 W/m2
19:59 16.9 °C 14.2 °C 1004.3 hPa West 7.2 km/h 16.1 km/h 84% 0 mm 151 W/m2
20:04 16.9 °C 14.2 °C 1004.3 hPa West 8.5 km/h 16.1 km/h 84% 0 mm 174 W/m2
20:09 16.9 °C 14.2 °C 1004.3 hPa West 8 km/h 16.1 km/h 84% 0 mm 86 W/m2
20:14 16.8 °C 14.1 °C 1004.3 hPa West 7.1 km/h 11.3 km/h 84% 0 mm 88 W/m2
20:19 16.8 °C 14.2 °C 1004.3 hPa West 6.6 km/h 9.7 km/h 84.4% 0 mm 81 W/m2
20:24 16.8 °C 14.3 °C 1004.3 hPa West 6 km/h 9.7 km/h 85% 0 mm 77 W/m2
20:28 16.8 °C 14.3 °C 1004.3 hPa West 4.8 km/h 6.4 km/h 85% 0 mm 90 W/m2
20:34 16.8 °C 14.3 °C 1004.3 hPa WSW 4.7 km/h 11.3 km/h 85% 0 mm 72 W/m2
20:39 16.8 °C 14.2 °C 1004.3 hPa WSW 5.3 km/h 8 km/h 84.8% 0 mm 69 W/m2
20:44 16.8 °C 14.3 °C 1004.3 hPa WSW 5.1 km/h 8 km/h 85% 0 mm 58 W/m2
20:49 16.8 °C 14.3 °C 1004.3 hPa WSW 4.5 km/h 9.7 km/h 85% 0 mm 47 W/m2
20:54 16.8 °C 14.3 °C 1004.3 hPa WSW 4.8 km/h 8 km/h 85% 0 mm 35 W/m2
20:59 16.7 °C 14.2 °C 1004.3 hPa WSW 4.2 km/h 8 km/h 84.8% 0 mm 35 W/m2
21:04 16.7 °C 14.1 °C 1004.3 hPa WSW 4.5 km/h 8 km/h 84% 0 mm 37 W/m2
21:09 16.7 °C 14 °C 1004.3 hPa WSW 5.6 km/h 8 km/h 84% 0 mm 35 W/m2
21:14 16.7 °C 14 °C 1004.3 hPa WSW 4 km/h 8 km/h 84% 0 mm 30 W/m2
21:19 16.6 °C 13.9 °C 1004.3 hPa WSW 6.1 km/h 9.7 km/h 84% 0 mm 21 W/m2
21:24 16.6 °C 13.9 °C 1004.3 hPa WSW 2.7 km/h 8 km/h 84% 0 mm 16 W/m2
21:29 16.6 °C 13.8 °C 1004.3 hPa West 3.2 km/h 9.7 km/h 84% 0 mm 11 W/m2
21:34 16.4 °C 13.7 °C 1004.3 hPa WNW 6.3 km/h 11.3 km/h 84% 0 mm 5 W/m2
21:39 16.4 °C 13.7 °C 1004.3 hPa West 7.2 km/h 11.3 km/h 84% 0 mm 0 W/m2
21:44 16.4 °C 13.7 °C 1004.3 hPa West 3.9 km/h 9.7 km/h 84% 0 mm 0 W/m2
21:54 16.3 °C 13.7 °C 1004.3 hPa West 4.8 km/h 8 km/h 84% 0 mm 0 W/m2
21:59 16.3 °C 13.6 °C 1004.3 hPa West 5 km/h 8 km/h 84% 0 mm 0 W/m2
22:04 16.2 °C 13.6 °C 1004.3 hPa West 4.3 km/h 8 km/h 84.6% 0 mm 0 W/m2
22:09 16.2 °C 13.7 °C 1004.3 hPa West 4.5 km/h 8 km/h 85% 0 mm 0 W/m2
22:19 16.2 °C 13.7 °C 1004.3 hPa West 2.4 km/h 6.4 km/h 85% 0 mm 0 W/m2
22:24 16.2 °C 13.7 °C 1004.3 hPa WNW 2.7 km/h 9.7 km/h 85% 0 mm 0 W/m2
22:29 16.1 °C 13.6 °C 1004.3 hPa West 5.1 km/h 11.3 km/h 85% 0 mm 0 W/m2
22:34 16.1 °C 13.6 °C 1004.3 hPa WNW 3.1 km/h 8 km/h 85% 0 mm 0 W/m2
22:39 16.1 °C 13.6 °C 1004.3 hPa WNW 2.6 km/h 4.8 km/h 85% 0 mm 0 W/m2
22:44 16.1 °C 13.6 °C 1004.3 hPa West 3.9 km/h 6.4 km/h 85% 0 mm 0 W/m2
22:48 16.1 °C 13.6 °C 1004.3 hPa West 3.2 km/h 6.4 km/h 85% 0 mm 0 W/m2
22:54 16.1 °C 13.6 °C 1004.3 hPa West 2.6 km/h 4.8 km/h 85% 0 mm 0 W/m2
22:59 16 °C 13.5 °C 1004.3 hPa West 3.9 km/h 8 km/h 85% 0 mm 0 W/m2
23:04 15.9 °C 13.4 °C 1004.3 hPa West 3.9 km/h 6.4 km/h 85% 0 mm 0 W/m2
23:09 15.9 °C 13.4 °C 1004.3 hPa West 1.9 km/h 6.4 km/h 85% 0 mm 0 W/m2
23:14 15.9 °C 13.4 °C 1004.3 hPa West 3.5 km/h 6.4 km/h 85% 0 mm 0 W/m2
23:19 15.9 °C 13.4 °C 1004.3 hPa West 5.5 km/h 11.3 km/h 85% 0 mm 0 W/m2
23:23 15.9 °C 13.4 °C 1004.6 hPa West 3.5 km/h 9.7 km/h 85.3% 0 mm 0 W/m2
23:29 15.8 °C 13.5 °C 1004.6 hPa West 2.6 km/h 8 km/h 86% 0 mm 0 W/m2
23:34 15.8 °C 13.5 °C 1004.3 hPa WSW 4 km/h 6.4 km/h 86% 0 mm 0 W/m2
23:39 15.8 °C 13.4 °C 1004.3 hPa West 4.5 km/h 8 km/h 86% 0 mm 0 W/m2
23:44 15.7 °C 13.4 °C 1004.6 hPa West 4.8 km/h 9.7 km/h 86% 0 mm 0 W/m2
23:54 15.7 °C 13.4 °C 1004.6 hPa WSW 3.4 km/h 9.7 km/h 86.8% 0 mm 0 W/m2
23:59 15.6 °C 13.3 °C 1004.6 hPa West 5.8 km/h 11.3 km/h 87% 0 mm 0 W/m2
Bath Spa Weather
Compliments of Weather Underground - 2 mb